sensor_id;sensor_type;location;lat;lon;timestamp;P1;durP1;ratioP1;P2;durP2;ratioP2
29362;SDS011;16349;53.672;10.014;2024-02-14T00:02:21;5.20;;;1.90;;
29362;SDS011;16349;53.672;10.014;2024-02-14T00:04:49;5.13;;;2.03;;
29362;SDS011;16349;53.672;10.014;2024-02-14T00:07:16;7.77;;;2.10;;
29362;SDS011;16349;53.672;10.014;2024-02-14T00:09:42;2.40;;;2.10;;
29362;SDS011;16349;53.672;10.014;2024-02-14T00:12:09;5.30;;;2.13;;
29362;SDS011;16349;53.672;10.014;2024-02-14T00:14:36;2.80;;;2.00;;
29362;SDS011;16349;53.672;10.014;2024-02-14T00:17:03;2.43;;;1.60;;
29362;SDS011;16349;53.672;10.014;2024-02-14T00:19:32;2.90;;;1.97;;
29362;SDS011;16349;53.672;10.014;2024-02-14T00:21:59;2.20;;;2.00;;
29362;SDS011;16349;53.672;10.014;2024-02-14T00:24:26;3.43;;;2.33;;
29362;SDS011;16349;53.672;10.014;2024-02-14T00:26:54;2.53;;;1.97;;
29362;SDS011;16349;53.672;10.014;2024-02-14T00:29:22;2.90;;;2.00;;
29362;SDS011;16349;53.672;10.014;2024-02-14T00:31:49;5.80;;;1.87;;
29362;SDS011;16349;53.672;10.014;2024-02-14T00:34:16;4.47;;;1.73;;
29362;SDS011;16349;53.672;10.014;2024-02-14T00:36:44;3.67;;;1.97;;
29362;SDS011;16349;53.672;10.014;2024-02-14T00:39:11;3.53;;;2.00;;
29362;SDS011;16349;53.672;10.014;2024-02-14T00:41:38;2.77;;;2.17;;
29362;SDS011;16349;53.672;10.014;2024-02-14T00:44:05;4.33;;;2.30;;
29362;SDS011;16349;53.672;10.014;2024-02-14T00:46:32;4.50;;;2.40;;
29362;SDS011;16349;53.672;10.014;2024-02-14T00:48:58;8.17;;;2.43;;
29362;SDS011;16349;53.672;10.014;2024-02-14T00:51:25;2.17;;;1.97;;
29362;SDS011;16349;53.672;10.014;2024-02-14T00:53:55;4.07;;;2.13;;
29362;SDS011;16349;53.672;10.014;2024-02-14T00:56:21;4.30;;;2.43;;
29362;SDS011;16349;53.672;10.014;2024-02-14T00:58:49;2.60;;;2.13;;
29362;SDS011;16349;53.672;10.014;2024-02-14T01:01:16;5.10;;;2.47;;
29362;SDS011;16349;53.672;10.014;2024-02-14T01:03:42;2.87;;;2.50;;
29362;SDS011;16349;53.672;10.014;2024-02-14T01:06:09;2.43;;;1.87;;
29362;SDS011;16349;53.672;10.014;2024-02-14T01:08:36;3.00;;;2.30;;
29362;SDS011;16349;53.672;10.014;2024-02-14T01:11:04;4.90;;;2.27;;
29362;SDS011;16349;53.672;10.014;2024-02-14T01:13:31;3.70;;;1.97;;
29362;SDS011;16349;53.672;10.014;2024-02-14T01:15:58;1.80;;;1.70;;
29362;SDS011;16349;53.672;10.014;2024-02-14T01:18:25;2.00;;;1.77;;
29362;SDS011;16349;53.672;10.014;2024-02-14T01:20:52;4.50;;;2.40;;
29362;SDS011;16349;53.672;10.014;2024-02-14T01:23:19;2.87;;;2.37;;
29362;SDS011;16349;53.672;10.014;2024-02-14T01:25:46;1.97;;;1.50;;
29362;SDS011;16349;53.672;10.014;2024-02-14T01:28:14;3.73;;;1.70;;
29362;SDS011;16349;53.672;10.014;2024-02-14T01:30:42;4.00;;;2.07;;
29362;SDS011;16349;53.672;10.014;2024-02-14T01:33:10;3.77;;;2.00;;
29362;SDS011;16349;53.672;10.014;2024-02-14T01:35:36;6.00;;;2.17;;
29362;SDS011;16349;53.672;10.014;2024-02-14T01:38:04;3.23;;;1.90;;
29362;SDS011;16349;53.672;10.014;2024-02-14T01:40:31;2.53;;;1.80;;
29362;SDS011;16349;53.672;10.014;2024-02-14T01:42:58;4.33;;;1.80;;
29362;SDS011;16349;53.672;10.014;2024-02-14T01:45:27;3.70;;;2.00;;
29362;SDS011;16349;53.672;10.014;2024-02-14T01:47:54;3.60;;;1.83;;
29362;SDS011;16349;53.672;10.014;2024-02-14T01:50:21;3.83;;;2.20;;
29362;SDS011;16349;53.672;10.014;2024-02-14T01:52:54;3.23;;;2.10;;
29362;SDS011;16349;53.672;10.014;2024-02-14T01:55:24;2.03;;;1.90;;
29362;SDS011;16349;53.672;10.014;2024-02-14T01:57:54;3.20;;;2.30;;
29362;SDS011;16349;53.672;10.014;2024-02-14T02:00:21;2.20;;;2.00;;
29362;SDS011;16349;53.672;10.014;2024-02-14T02:02:50;3.63;;;2.20;;
29362;SDS011;16349;53.672;10.014;2024-02-14T02:05:19;2.07;;;1.87;;
29362;SDS011;16349;53.672;10.014;2024-02-14T02:07:46;2.80;;;1.93;;
29362;SDS011;16349;53.672;10.014;2024-02-14T02:10:13;2.73;;;2.17;;
29362;SDS011;16349;53.672;10.014;2024-02-14T02:12:40;3.93;;;2.33;;
29362;SDS011;16349;53.672;10.014;2024-02-14T02:15:08;2.87;;;2.13;;
29362;SDS011;16349;53.672;10.014;2024-02-14T02:17:38;5.07;;;1.83;;
29362;SDS011;16349;53.672;10.014;2024-02-14T02:20:07;4.50;;;2.60;;
29362;SDS011;16349;53.672;10.014;2024-02-14T02:22:34;3.40;;;2.20;;
29362;SDS011;16349;53.672;10.014;2024-02-14T02:25:03;2.97;;;2.63;;
29362;SDS011;16349;53.672;10.014;2024-02-14T02:27:32;3.23;;;2.30;;
29362;SDS011;16349;53.672;10.014;2024-02-14T02:30:03;4.10;;;2.73;;
29362;SDS011;16349;53.672;10.014;2024-02-14T02:32:31;3.53;;;2.13;;
29362;SDS011;16349;53.672;10.014;2024-02-14T02:34:58;3.87;;;2.43;;
29362;SDS011;16349;53.672;10.014;2024-02-14T02:37:25;4.07;;;2.10;;
29362;SDS011;16349;53.672;10.014;2024-02-14T02:39:53;3.80;;;2.50;;
29362;SDS011;16349;53.672;10.014;2024-02-14T02:42:22;2.97;;;2.63;;
29362;SDS011;16349;53.672;10.014;2024-02-14T02:44:48;2.40;;;2.20;;
29362;SDS011;16349;53.672;10.014;2024-02-14T02:47:17;3.97;;;2.63;;
29362;SDS011;16349;53.672;10.014;2024-02-14T02:49:44;5.17;;;2.93;;
29362;SDS011;16349;53.672;10.014;2024-02-14T02:52:10;4.27;;;3.00;;
29362;SDS011;16349;53.672;10.014;2024-02-14T02:54:38;3.20;;;2.67;;
29362;SDS011;16349;53.672;10.014;2024-02-14T02:57:06;3.20;;;2.40;;
29362;SDS011;16349;53.672;10.014;2024-02-14T02:59:34;5.03;;;2.90;;
29362;SDS011;16349;53.672;10.014;2024-02-14T03:02:01;3.53;;;3.20;;
29362;SDS011;16349;53.672;10.014;2024-02-14T03:04:28;5.90;;;3.10;;
29362;SDS011;16349;53.672;10.014;2024-02-14T03:06:56;4.80;;;3.23;;
29362;SDS011;16349;53.672;10.014;2024-02-14T03:09:24;6.17;;;3.57;;
29362;SDS011;16349;53.672;10.014;2024-02-14T03:11:53;6.57;;;2.90;;
29362;SDS011;16349;53.672;10.014;2024-02-14T03:14:22;3.73;;;3.00;;
29362;SDS011;16349;53.672;10.014;2024-02-14T03:16:50;3.13;;;2.83;;
29362;SDS011;16349;53.672;10.014;2024-02-14T03:19:17;6.17;;;3.27;;
29362;SDS011;16349;53.672;10.014;2024-02-14T03:21:44;3.67;;;3.37;;
29362;SDS011;16349;53.672;10.014;2024-02-14T03:24:11;6.80;;;3.50;;
29362;SDS011;16349;53.672;10.014;2024-02-14T03:26:39;4.07;;;3.20;;
29362;SDS011;16349;53.672;10.014;2024-02-14T03:29:07;3.87;;;3.43;;
29362;SDS011;16349;53.672;10.014;2024-02-14T03:31:34;4.17;;;3.23;;
29362;SDS011;16349;53.672;10.014;2024-02-14T03:34:02;5.90;;;2.83;;
29362;SDS011;16349;53.672;10.014;2024-02-14T03:36:29;4.73;;;3.10;;
29362;SDS011;16349;53.672;10.014;2024-02-14T03:38:56;5.30;;;3.10;;
29362;SDS011;16349;53.672;10.014;2024-02-14T03:41:23;7.50;;;3.80;;
29362;SDS011;16349;53.672;10.014;2024-02-14T03:43:50;3.63;;;3.30;;
29362;SDS011;16349;53.672;10.014;2024-02-14T03:46:18;4.67;;;3.10;;
29362;SDS011;16349;53.672;10.014;2024-02-14T03:48:46;4.90;;;3.60;;
29362;SDS011;16349;53.672;10.014;2024-02-14T03:51:15;5.10;;;3.73;;
29362;SDS011;16349;53.672;10.014;2024-02-14T03:53:42;4.10;;;3.20;;
29362;SDS011;16349;53.672;10.014;2024-02-14T03:56:09;3.77;;;3.10;;
29362;SDS011;16349;53.672;10.014;2024-02-14T03:58:37;3.63;;;3.33;;
29362;SDS011;16349;53.672;10.014;2024-02-14T04:01:04;3.87;;;3.00;;
29362;SDS011;16349;53.672;10.014;2024-02-14T04:03:31;4.07;;;3.30;;
29362;SDS011;16349;53.672;10.014;2024-02-14T04:05:58;5.93;;;3.50;;
29362;SDS011;16349;53.672;10.014;2024-02-14T04:08:27;3.90;;;3.47;;
29362;SDS011;16349;53.672;10.014;2024-02-14T04:10:54;5.13;;;3.53;;
29362;SDS011;16349;53.672;10.014;2024-02-14T04:13:21;3.63;;;3.30;;
29362;SDS011;16349;53.672;10.014;2024-02-14T04:15:48;5.23;;;3.20;;
29362;SDS011;16349;53.672;10.014;2024-02-14T04:18:15;7.37;;;3.50;;
29362;SDS011;16349;53.672;10.014;2024-02-14T04:20:43;7.60;;;3.60;;
29362;SDS011;16349;53.672;10.014;2024-02-14T04:23:10;4.90;;;3.67;;
29362;SDS011;16349;53.672;10.014;2024-02-14T04:25:38;3.87;;;3.17;;
29362;SDS011;16349;53.672;10.014;2024-02-14T04:28:05;3.80;;;3.40;;
29362;SDS011;16349;53.672;10.014;2024-02-14T04:30:32;6.27;;;4.10;;
29362;SDS011;16349;53.672;10.014;2024-02-14T04:33:00;3.47;;;3.27;;
29362;SDS011;16349;53.672;10.014;2024-02-14T04:35:28;6.90;;;3.40;;
29362;SDS011;16349;53.672;10.014;2024-02-14T04:37:54;4.43;;;3.20;;
29362;SDS011;16349;53.672;10.014;2024-02-14T04:40:22;5.47;;;3.63;;
29362;SDS011;16349;53.672;10.014;2024-02-14T04:42:50;6.83;;;4.33;;
29362;SDS011;16349;53.672;10.014;2024-02-14T04:45:17;3.80;;;3.50;;
29362;SDS011;16349;53.672;10.014;2024-02-14T04:47:44;4.27;;;3.83;;
29362;SDS011;16349;53.672;10.014;2024-02-14T04:50:11;6.57;;;3.60;;
29362;SDS011;16349;53.672;10.014;2024-02-14T04:52:39;6.33;;;3.93;;
29362;SDS011;16349;53.672;10.014;2024-02-14T04:55:06;4.60;;;3.63;;
29362;SDS011;16349;53.672;10.014;2024-02-14T04:57:33;8.00;;;3.90;;
29362;SDS011;16349;53.672;10.014;2024-02-14T05:00:04;4.40;;;3.67;;
29362;SDS011;16349;53.672;10.014;2024-02-14T05:02:32;4.63;;;3.87;;
29362;SDS011;16349;53.672;10.014;2024-02-14T05:04:59;5.40;;;3.87;;
29362;SDS011;16349;53.672;10.014;2024-02-14T05:07:28;4.13;;;3.73;;
29362;SDS011;16349;53.672;10.014;2024-02-14T05:09:55;5.17;;;3.77;;
29362;SDS011;16349;53.672;10.014;2024-02-14T05:12:21;4.13;;;3.80;;
29362;SDS011;16349;53.672;10.014;2024-02-14T05:14:48;5.07;;;3.90;;
29362;SDS011;16349;53.672;10.014;2024-02-14T05:17:16;5.63;;;4.37;;
29362;SDS011;16349;53.672;10.014;2024-02-14T05:19:43;5.77;;;4.13;;
29362;SDS011;16349;53.672;10.014;2024-02-14T05:22:10;5.87;;;4.37;;
29362;SDS011;16349;53.672;10.014;2024-02-14T05:24:37;7.77;;;4.40;;
29362;SDS011;16349;53.672;10.014;2024-02-14T05:27:04;7.10;;;4.80;;
29362;SDS011;16349;53.672;10.014;2024-02-14T05:29:31;9.40;;;4.30;;
29362;SDS011;16349;53.672;10.014;2024-02-14T05:31:58;5.60;;;5.00;;
29362;SDS011;16349;53.672;10.014;2024-02-14T05:34:26;6.57;;;4.63;;
29362;SDS011;16349;53.672;10.014;2024-02-14T05:36:53;4.77;;;3.87;;
29362;SDS011;16349;53.672;10.014;2024-02-14T05:39:20;8.33;;;4.50;;
29362;SDS011;16349;53.672;10.014;2024-02-14T05:41:47;6.77;;;4.37;;
29362;SDS011;16349;53.672;10.014;2024-02-14T05:44:15;6.93;;;4.87;;
29362;SDS011;16349;53.672;10.014;2024-02-14T05:46:41;8.03;;;5.40;;
29362;SDS011;16349;53.672;10.014;2024-02-14T05:49:08;5.47;;;4.97;;
29362;SDS011;16349;53.672;10.014;2024-02-14T05:51:37;6.17;;;4.97;;
29362;SDS011;16349;53.672;10.014;2024-02-14T05:54:04;7.70;;;5.10;;
29362;SDS011;16349;53.672;10.014;2024-02-14T05:56:31;5.63;;;5.13;;
29362;SDS011;16349;53.672;10.014;2024-02-14T05:58:58;6.13;;;5.53;;
29362;SDS011;16349;53.672;10.014;2024-02-14T06:01:25;6.57;;;5.27;;
29362;SDS011;16349;53.672;10.014;2024-02-14T06:03:50;7.33;;;5.13;;
29362;SDS011;16349;53.672;10.014;2024-02-14T06:06:17;8.00;;;5.80;;
29362;SDS011;16349;53.672;10.014;2024-02-14T06:08:45;5.47;;;4.97;;
29362;SDS011;16349;53.672;10.014;2024-02-14T06:11:12;6.87;;;5.63;;
29362;SDS011;16349;53.672;10.014;2024-02-14T06:13:41;5.53;;;5.03;;
29362;SDS011;16349;53.672;10.014;2024-02-14T06:16:08;6.83;;;6.10;;
29362;SDS011;16349;53.672;10.014;2024-02-14T06:18:36;7.33;;;5.33;;
29362;SDS011;16349;53.672;10.014;2024-02-14T06:21:04;5.70;;;5.20;;
29362;SDS011;16349;53.672;10.014;2024-02-14T06:23:31;6.73;;;5.43;;
29362;SDS011;16349;53.672;10.014;2024-02-14T06:25:59;5.93;;;5.43;;
29362;SDS011;16349;53.672;10.014;2024-02-14T06:28:26;7.17;;;5.87;;
29362;SDS011;16349;53.672;10.014;2024-02-14T06:30:53;6.50;;;5.90;;
29362;SDS011;16349;53.672;10.014;2024-02-14T06:33:20;6.47;;;5.87;;
29362;SDS011;16349;53.672;10.014;2024-02-14T06:35:47;8.33;;;6.57;;
29362;SDS011;16349;53.672;10.014;2024-02-14T06:38:14;6.93;;;6.23;;
29362;SDS011;16349;53.672;10.014;2024-02-14T06:40:41;9.43;;;6.80;;
29362;SDS011;16349;53.672;10.014;2024-02-14T06:43:10;7.70;;;6.10;;
29362;SDS011;16349;53.672;10.014;2024-02-14T06:45:37;7.53;;;6.40;;
29362;SDS011;16349;53.672;10.014;2024-02-14T06:48:04;8.50;;;6.23;;
29362;SDS011;16349;53.672;10.014;2024-02-14T06:50:33;7.60;;;6.67;;
29362;SDS011;16349;53.672;10.014;2024-02-14T06:53:00;9.77;;;7.00;;
29362;SDS011;16349;53.672;10.014;2024-02-14T06:55:27;7.43;;;6.73;;
29362;SDS011;16349;53.672;10.014;2024-02-14T06:57:54;7.63;;;6.93;;
29362;SDS011;16349;53.672;10.014;2024-02-14T07:00:23;6.97;;;6.33;;
29362;SDS011;16349;53.672;10.014;2024-02-14T07:02:50;8.83;;;7.17;;
29362;SDS011;16349;53.672;10.014;2024-02-14T07:05:17;7.60;;;6.50;;
29362;SDS011;16349;53.672;10.014;2024-02-14T07:07:44;7.83;;;6.40;;
29362;SDS011;16349;53.672;10.014;2024-02-14T07:10:11;8.40;;;6.77;;
29362;SDS011;16349;53.672;10.014;2024-02-14T07:12:38;8.90;;;7.23;;
29362;SDS011;16349;53.672;10.014;2024-02-14T07:15:05;9.27;;;6.83;;
29362;SDS011;16349;53.672;10.014;2024-02-14T07:17:34;9.20;;;7.17;;
29362;SDS011;16349;53.672;10.014;2024-02-14T07:20:01;7.30;;;6.60;;
29362;SDS011;16349;53.672;10.014;2024-02-14T07:22:29;7.60;;;6.80;;
29362;SDS011;16349;53.672;10.014;2024-02-14T07:24:56;8.00;;;6.30;;
29362;SDS011;16349;53.672;10.014;2024-02-14T07:27:23;7.10;;;6.37;;
29362;SDS011;16349;53.672;10.014;2024-02-14T07:29:50;7.97;;;7.17;;
29362;SDS011;16349;53.672;10.014;2024-02-14T07:32:17;6.83;;;6.20;;
29362;SDS011;16349;53.672;10.014;2024-02-14T07:34:45;8.63;;;6.90;;
29362;SDS011;16349;53.672;10.014;2024-02-14T07:37:12;6.80;;;6.10;;
29362;SDS011;16349;53.672;10.014;2024-02-14T07:39:40;8.30;;;7.50;;
29362;SDS011;16349;53.672;10.014;2024-02-14T07:42:07;8.53;;;6.83;;
29362;SDS011;16349;53.672;10.014;2024-02-14T07:44:34;7.60;;;6.87;;
29362;SDS011;16349;53.672;10.014;2024-02-14T07:47:01;10.07;;;6.87;;
29362;SDS011;16349;53.672;10.014;2024-02-14T07:49:28;7.20;;;6.50;;
29362;SDS011;16349;53.672;10.014;2024-02-14T07:51:56;8.80;;;6.97;;
29362;SDS011;16349;53.672;10.014;2024-02-14T07:54:23;8.37;;;7.57;;
29362;SDS011;16349;53.672;10.014;2024-02-14T07:56:50;10.33;;;7.37;;
29362;SDS011;16349;53.672;10.014;2024-02-14T07:59:17;12.20;;;8.73;;
29362;SDS011;16349;53.672;10.014;2024-02-14T08:01:46;8.80;;;7.73;;
29362;SDS011;16349;53.672;10.014;2024-02-14T08:04:13;9.20;;;7.77;;
29362;SDS011;16349;53.672;10.014;2024-02-14T08:06:40;10.17;;;7.67;;
29362;SDS011;16349;53.672;10.014;2024-02-14T08:09:09;8.30;;;7.57;;
29362;SDS011;16349;53.672;10.014;2024-02-14T08:11:36;8.93;;;8.03;;
29362;SDS011;16349;53.672;10.014;2024-02-14T08:14:03;11.70;;;8.33;;
29362;SDS011;16349;53.672;10.014;2024-02-14T08:16:30;10.20;;;8.00;;
29362;SDS011;16349;53.672;10.014;2024-02-14T08:18:57;11.07;;;8.10;;
29362;SDS011;16349;53.672;10.014;2024-02-14T08:21:24;12.33;;;8.40;;
29362;SDS011;16349;53.672;10.014;2024-02-14T08:23:51;8.13;;;7.17;;
29362;SDS011;16349;53.672;10.014;2024-02-14T08:26:20;9.10;;;8.20;;
29362;SDS011;16349;53.672;10.014;2024-02-14T08:28:47;10.37;;;8.53;;
29362;SDS011;16349;53.672;10.014;2024-02-14T08:31:14;8.80;;;7.73;;
29362;SDS011;16349;53.672;10.014;2024-02-14T08:33:41;11.77;;;8.33;;
29362;SDS011;16349;53.672;10.014;2024-02-14T08:36:09;9.67;;;8.10;;
29362;SDS011;16349;53.672;10.014;2024-02-14T08:38:36;10.70;;;8.00;;
29362;SDS011;16349;53.672;10.014;2024-02-14T08:41:03;9.17;;;7.93;;
29362;SDS011;16349;53.672;10.014;2024-02-14T08:43:32;9.50;;;8.00;;
29362;SDS011;16349;53.672;10.014;2024-02-14T08:46:00;8.60;;;7.80;;
29362;SDS011;16349;53.672;10.014;2024-02-14T08:48:28;9.67;;;7.67;;
29362;SDS011;16349;53.672;10.014;2024-02-14T08:50:59;9.27;;;7.50;;
29362;SDS011;16349;53.672;10.014;2024-02-14T08:53:29;9.80;;;7.97;;
29362;SDS011;16349;53.672;10.014;2024-02-14T08:55:57;9.57;;;7.90;;
29362;SDS011;16349;53.672;10.014;2024-02-14T08:58:24;8.53;;;7.40;;
29362;SDS011;16349;53.672;10.014;2024-02-14T09:00:53;8.77;;;7.00;;
29362;SDS011;16349;53.672;10.014;2024-02-14T09:03:21;9.23;;;8.07;;
29362;SDS011;16349;53.672;10.014;2024-02-14T09:05:49;10.13;;;7.83;;
29362;SDS011;16349;53.672;10.014;2024-02-14T09:08:18;9.93;;;8.07;;
29362;SDS011;16349;53.672;10.014;2024-02-14T09:10:46;10.57;;;7.13;;
29362;SDS011;16349;53.672;10.014;2024-02-14T09:13:13;8.57;;;7.67;;
29362;SDS011;16349;53.672;10.014;2024-02-14T09:15:41;7.73;;;6.77;;
29362;SDS011;16349;53.672;10.014;2024-02-14T09:18:10;8.63;;;7.50;;
29362;SDS011;16349;53.672;10.014;2024-02-14T09:20:38;8.67;;;7.20;;
29362;SDS011;16349;53.672;10.014;2024-02-14T09:23:06;7.47;;;6.77;;
29362;SDS011;16349;53.672;10.014;2024-02-14T09:25:33;8.87;;;6.80;;
29362;SDS011;16349;53.672;10.014;2024-02-14T09:28:01;8.10;;;6.97;;
29362;SDS011;16349;53.672;10.014;2024-02-14T09:30:29;7.57;;;6.77;;
29362;SDS011;16349;53.672;10.014;2024-02-14T09:32:56;9.23;;;7.33;;
29362;SDS011;16349;53.672;10.014;2024-02-14T09:35:26;8.97;;;6.77;;
29362;SDS011;16349;53.672;10.014;2024-02-14T09:37:53;8.03;;;6.67;;
29362;SDS011;16349;53.672;10.014;2024-02-14T09:40:21;7.60;;;6.80;;
29362;SDS011;16349;53.672;10.014;2024-02-14T09:42:54;7.57;;;6.43;;
29362;SDS011;16349;53.672;10.014;2024-02-14T09:45:24;7.63;;;6.83;;
29362;SDS011;16349;53.672;10.014;2024-02-14T09:47:52;8.07;;;6.70;;
29362;SDS011;16349;53.672;10.014;2024-02-14T09:50:19;9.57;;;6.63;;
29362;SDS011;16349;53.672;10.014;2024-02-14T09:52:48;7.33;;;6.53;;
29362;SDS011;16349;53.672;10.014;2024-02-14T09:55:15;7.60;;;6.43;;
29362;SDS011;16349;53.672;10.014;2024-02-14T09:57:43;7.20;;;6.50;;
29362;SDS011;16349;53.672;10.014;2024-02-14T10:00:10;6.90;;;6.20;;
29362;SDS011;16349;53.672;10.014;2024-02-14T10:10:06;6.47;;;5.87;;
29362;SDS011;16349;53.672;10.014;2024-02-14T10:12:34;6.03;;;5.43;;
29362;SDS011;16349;53.672;10.014;2024-02-14T10:15:01;6.33;;;5.43;;
29362;SDS011;16349;53.672;10.014;2024-02-14T10:17:29;5.87;;;5.27;;
29362;SDS011;16349;53.672;10.014;2024-02-14T10:19:59;5.60;;;5.10;;
29362;SDS011;16349;53.672;10.014;2024-02-14T10:22:32;5.13;;;4.63;;
29362;SDS011;16349;53.672;10.014;2024-02-14T10:25:00;5.63;;;4.77;;
29362;SDS011;16349;53.672;10.014;2024-02-14T10:27:31;5.57;;;5.03;;
29362;SDS011;16349;53.672;10.014;2024-02-14T10:29:59;5.07;;;4.57;;
29362;SDS011;16349;53.672;10.014;2024-02-14T10:32:26;5.30;;;4.90;;
29362;SDS011;16349;53.672;10.014;2024-02-14T10:34:54;5.47;;;4.60;;
29362;SDS011;16349;53.672;10.014;2024-02-14T10:37:21;4.87;;;4.40;;
29362;SDS011;16349;53.672;10.014;2024-02-14T10:39:51;5.27;;;4.10;;
29362;SDS011;16349;53.672;10.014;2024-02-14T10:42:20;4.87;;;4.47;;
29362;SDS011;16349;53.672;10.014;2024-02-14T10:44:48;4.63;;;4.23;;
29362;SDS011;16349;53.672;10.014;2024-02-14T10:47:19;4.80;;;4.40;;
29362;SDS011;16349;53.672;10.014;2024-02-14T10:49:47;4.77;;;4.03;;
29362;SDS011;16349;53.672;10.014;2024-02-14T10:52:16;4.73;;;4.17;;
29362;SDS011;16349;53.672;10.014;2024-02-14T10:54:47;4.13;;;3.63;;
29362;SDS011;16349;53.672;10.014;2024-02-14T10:57:22;4.03;;;3.73;;
29362;SDS011;16349;53.672;10.014;2024-02-14T10:59:52;4.07;;;3.77;;
29362;SDS011;16349;53.672;10.014;2024-02-14T11:02:20;4.30;;;4.00;;
29362;SDS011;16349;53.672;10.014;2024-02-14T11:04:48;4.00;;;3.70;;
29362;SDS011;16349;53.672;10.014;2024-02-14T11:07:19;4.20;;;3.80;;
29362;SDS011;16349;53.672;10.014;2024-02-14T11:09:48;4.23;;;3.83;;
29362;SDS011;16349;53.672;10.014;2024-02-14T11:12:26;4.33;;;4.00;;
29362;SDS011;16349;53.672;10.014;2024-02-14T11:14:58;4.20;;;3.90;;
29362;SDS011;16349;53.672;10.014;2024-02-14T11:17:26;3.77;;;3.47;;
29362;SDS011;16349;53.672;10.014;2024-02-14T11:19:53;4.17;;;3.80;;
29362;SDS011;16349;53.672;10.014;2024-02-14T11:22:21;4.03;;;3.73;;
29362;SDS011;16349;53.672;10.014;2024-02-14T11:24:49;4.53;;;4.13;;
29362;SDS011;16349;53.672;10.014;2024-02-14T11:27:17;3.97;;;3.57;;
29362;SDS011;16349;53.672;10.014;2024-02-14T11:29:52;3.80;;;3.50;;
29362;SDS011;16349;53.672;10.014;2024-02-14T11:32:23;4.10;;;3.70;;
29362;SDS011;16349;53.672;10.014;2024-02-14T11:34:54;3.87;;;3.47;;
29362;SDS011;16349;53.672;10.014;2024-02-14T11:37:27;3.63;;;3.37;;
29362;SDS011;16349;53.672;10.014;2024-02-14T11:39:55;4.57;;;4.17;;
29362;SDS011;16349;53.672;10.014;2024-02-14T11:42:23;5.57;;;4.17;;
29362;SDS011;16349;53.672;10.014;2024-02-14T11:44:50;4.90;;;4.50;;
29362;SDS011;16349;53.672;10.014;2024-02-14T11:47:17;4.67;;;4.27;;
29362;SDS011;16349;53.672;10.014;2024-02-14T11:49:46;5.03;;;4.63;;
29362;SDS011;16349;53.672;10.014;2024-02-14T11:52:13;4.80;;;4.40;;
29362;SDS011;16349;53.672;10.014;2024-02-14T11:54:45;4.97;;;4.47;;
29362;SDS011;16349;53.672;10.014;2024-02-14T11:57:16;4.70;;;4.30;;
29362;SDS011;16349;53.672;10.014;2024-02-14T11:59:45;6.83;;;4.30;;
29362;SDS011;16349;53.672;10.014;2024-02-14T12:02:18;6.43;;;4.37;;
29362;SDS011;16349;53.672;10.014;2024-02-14T12:04:48;4.63;;;4.23;;
29362;SDS011;16349;53.672;10.014;2024-02-14T12:07:21;5.07;;;4.30;;
29362;SDS011;16349;53.672;10.014;2024-02-14T12:09:48;5.50;;;4.43;;
29362;SDS011;16349;53.672;10.014;2024-02-14T12:12:16;4.30;;;4.00;;
29362;SDS011;16349;53.672;10.014;2024-02-14T12:14:43;4.87;;;4.40;;
29362;SDS011;16349;53.672;10.014;2024-02-14T12:17:10;5.23;;;4.83;;
29362;SDS011;16349;53.672;10.014;2024-02-14T12:19:38;5.13;;;4.63;;
29362;SDS011;16349;53.672;10.014;2024-02-14T12:22:10;4.77;;;4.37;;
29362;SDS011;16349;53.672;10.014;2024-02-14T12:24:42;4.50;;;4.20;;
29362;SDS011;16349;53.672;10.014;2024-02-14T12:27:09;5.13;;;4.60;;
29362;SDS011;16349;53.672;10.014;2024-02-14T12:29:36;6.17;;;5.10;;
29362;SDS011;16349;53.672;10.014;2024-02-14T12:32:05;4.80;;;4.40;;
29362;SDS011;16349;53.672;10.014;2024-02-14T12:34:32;5.03;;;4.57;;
29362;SDS011;16349;53.672;10.014;2024-02-14T12:36:59;5.33;;;4.33;;
29362;SDS011;16349;53.672;10.014;2024-02-14T12:39:27;5.17;;;4.03;;
29362;SDS011;16349;53.672;10.014;2024-02-14T12:41:54;4.40;;;4.10;;
29362;SDS011;16349;53.672;10.014;2024-02-14T12:44:21;4.60;;;4.20;;
29362;SDS011;16349;53.672;10.014;2024-02-14T12:46:48;5.50;;;4.40;;
29362;SDS011;16349;53.672;10.014;2024-02-14T12:49:15;4.30;;;4.00;;
29362;SDS011;16349;53.672;10.014;2024-02-14T12:51:42;3.63;;;3.33;;
29362;SDS011;16349;53.672;10.014;2024-02-14T12:54:09;5.23;;;3.70;;
29362;SDS011;16349;53.672;10.014;2024-02-14T12:56:38;3.43;;;3.13;;
29362;SDS011;16349;53.672;10.014;2024-02-14T12:59:05;4.17;;;3.77;;
29362;SDS011;16349;53.672;10.014;2024-02-14T13:01:35;3.63;;;3.40;;
29362;SDS011;16349;53.672;10.014;2024-02-14T13:04:02;3.67;;;3.37;;
29362;SDS011;16349;53.672;10.014;2024-02-14T13:06:30;3.33;;;3.10;;
29362;SDS011;16349;53.672;10.014;2024-02-14T13:08:57;3.97;;;3.57;;
29362;SDS011;16349;53.672;10.014;2024-02-14T13:11:25;4.20;;;3.47;;
29362;SDS011;16349;53.672;10.014;2024-02-14T13:13:53;4.40;;;4.00;;
29362;SDS011;16349;53.672;10.014;2024-02-14T13:16:20;3.70;;;3.40;;
29362;SDS011;16349;53.672;10.014;2024-02-14T13:18:47;3.90;;;3.60;;
29362;SDS011;16349;53.672;10.014;2024-02-14T13:21:13;4.13;;;3.73;;
29362;SDS011;16349;53.672;10.014;2024-02-14T13:23:41;3.77;;;3.43;;
29362;SDS011;16349;53.672;10.014;2024-02-14T13:26:08;4.50;;;4.20;;
29362;SDS011;16349;53.672;10.014;2024-02-14T13:28:35;5.10;;;4.00;;
29362;SDS011;16349;53.672;10.014;2024-02-14T13:31:03;4.10;;;3.70;;
29362;SDS011;16349;53.672;10.014;2024-02-14T13:33:30;4.30;;;4.00;;
29362;SDS011;16349;53.672;10.014;2024-02-14T13:35:57;4.30;;;3.57;;
29362;SDS011;16349;53.672;10.014;2024-02-14T13:38:24;4.40;;;4.00;;
29362;SDS011;16349;53.672;10.014;2024-02-14T13:40:51;4.93;;;4.53;;
29362;SDS011;16349;53.672;10.014;2024-02-14T13:43:17;5.20;;;4.80;;
29362;SDS011;16349;53.672;10.014;2024-02-14T13:45:44;4.97;;;4.47;;
29362;SDS011;16349;53.672;10.014;2024-02-14T13:48:14;5.03;;;4.63;;
29362;SDS011;16349;53.672;10.014;2024-02-14T13:50:41;5.57;;;5.07;;
29362;SDS011;16349;53.672;10.014;2024-02-14T13:53:09;6.13;;;5.23;;
29362;SDS011;16349;53.672;10.014;2024-02-14T13:55:36;5.50;;;4.93;;
29362;SDS011;16349;53.672;10.014;2024-02-14T13:58:04;7.10;;;6.40;;
29362;SDS011;16349;53.672;10.014;2024-02-14T14:00:30;6.27;;;5.67;;
29362;SDS011;16349;53.672;10.014;2024-02-14T14:02:58;6.87;;;6.17;;
29362;SDS011;16349;53.672;10.014;2024-02-14T14:05:26;7.40;;;5.90;;
29362;SDS011;16349;53.672;10.014;2024-02-14T14:07:54;7.27;;;6.50;;
29362;SDS011;16349;53.672;10.014;2024-02-14T14:10:22;7.50;;;6.10;;
29362;SDS011;16349;53.672;10.014;2024-02-14T14:12:50;6.23;;;5.73;;
29362;SDS011;16349;53.672;10.014;2024-02-14T14:15:17;6.60;;;6.00;;
29362;SDS011;16349;53.672;10.014;2024-02-14T14:17:44;6.83;;;5.67;;
29362;SDS011;16349;53.672;10.014;2024-02-14T14:20:11;7.10;;;6.40;;
29362;SDS011;16349;53.672;10.014;2024-02-14T14:22:39;6.70;;;5.97;;
29362;SDS011;16349;53.672;10.014;2024-02-14T14:25:06;7.03;;;6.40;;
29362;SDS011;16349;53.672;10.014;2024-02-14T14:27:33;7.03;;;6.33;;
29362;SDS011;16349;53.672;10.014;2024-02-14T14:30:00;7.27;;;6.57;;
29362;SDS011;16349;53.672;10.014;2024-02-14T14:32:28;8.07;;;6.27;;
29362;SDS011;16349;53.672;10.014;2024-02-14T14:34:55;8.73;;;6.57;;
29362;SDS011;16349;53.672;10.014;2024-02-14T14:37:21;6.57;;;5.97;;
29362;SDS011;16349;53.672;10.014;2024-02-14T14:39:50;10.23;;;6.33;;
29362;SDS011;16349;53.672;10.014;2024-02-14T14:42:17;7.13;;;6.53;;
29362;SDS011;16349;53.672;10.014;2024-02-14T14:44:44;6.40;;;5.73;;